createdAt,value
2019-02-28T00:01:00.201Z,0.01
2019-02-28T00:04:05.314Z,-0.15
2019-02-28T00:07:10.601Z,-0.06
2019-02-28T00:10:15.704Z,-0.09
2019-02-28T00:13:22.422Z,-0.18
2019-02-28T00:16:27.528Z,-0.01
2019-02-28T00:19:32.718Z,-0.16
2019-02-28T00:22:37.818Z,-0.16
2019-02-28T00:25:42.926Z,0.01
2019-02-28T00:28:48.182Z,0.02
2019-02-28T00:31:53.418Z,-0.13
2019-02-28T00:34:58.546Z,-0.11
2019-02-28T00:38:03.673Z,-0.21
2019-02-28T00:41:10.023Z,-0.12
2019-02-28T00:44:15.373Z,-0.35
2019-02-28T00:47:20.513Z,-0.43
2019-02-28T00:50:27.612Z,-0.54
2019-02-28T00:53:32.715Z,-0.37
2019-02-28T00:56:37.833Z,-0.27
2019-02-28T00:59:43.031Z,-0.53
2019-02-28T01:02:52.149Z,-0.58
2019-02-28T01:05:55.198Z,-0.63
2019-02-28T01:09:00.374Z,-0.72
2019-02-28T01:12:07.054Z,-0.78
2019-02-28T01:15:13.382Z,-0.90
2019-02-28T01:18:18.515Z,-0.77
2019-02-28T01:21:24.512Z,-0.80
2019-02-28T01:24:34.457Z,-0.83
2019-02-28T01:27:37.774Z,-0.88
2019-02-28T01:30:42.967Z,-0.92
2019-02-28T01:33:48.126Z,-1.02
2019-02-28T01:36:53.328Z,-0.92
2019-02-28T01:40:01.149Z,-1.08
2019-02-28T01:43:05.422Z,-1.02
2019-02-28T01:46:10.606Z,-0.98
2019-02-28T01:49:15.763Z,-1.20
2019-02-28T01:52:21.051Z,-1.29
2019-02-28T01:55:26.164Z,-1.36
2019-02-28T01:58:31.291Z,-1.24
2019-02-28T02:01:36.448Z,-1.14
2019-02-28T02:04:43.252Z,-0.98
2019-02-28T02:07:48.411Z,-1.08
2019-02-28T02:10:55.974Z,-1.12
2019-02-28T02:14:00.391Z,-1.29
2019-02-28T02:17:05.523Z,-1.43
2019-02-28T02:20:10.856Z,-1.57
2019-02-28T02:23:18.188Z,-1.60
2019-02-28T02:26:22.803Z,-1.65
2019-02-28T02:29:27.882Z,-1.61
2019-02-28T02:32:37.058Z,-1.73
2019-02-28T02:35:42.631Z,-1.70
2019-02-28T02:38:47.727Z,-1.87
2019-02-28T02:41:52.916Z,-1.94
2019-02-28T02:44:58.053Z,-1.89
2019-02-28T02:48:05.258Z,-1.86
2019-02-28T02:51:11.109Z,-1.90
2019-02-28T02:54:19.665Z,-1.85
2019-02-28T02:57:23.884Z,-1.99
2019-02-28T03:00:29.071Z,-1.94
2019-02-28T03:03:34.324Z,-1.92
2019-02-28T03:06:39.450Z,-1.91
2019-02-28T03:09:44.824Z,-1.71
2019-02-28T03:12:50.158Z,-1.88
2019-02-28T03:15:59.358Z,-1.97
2019-02-28T03:19:02.148Z,-1.94
2019-02-28T03:22:07.287Z,-1.94
2019-02-28T03:25:13.998Z,-1.96
2019-02-28T03:28:19.089Z,-2.02
2019-02-28T03:31:24.219Z,-2.05
2019-02-28T03:34:29.429Z,-1.96
2019-02-28T03:37:34.760Z,-1.90
2019-02-28T03:40:41.256Z,-1.92
2019-02-28T03:43:46.443Z,-2.01
2019-02-28T03:46:51.675Z,-1.94
2019-02-28T03:49:56.784Z,-2.01
2019-02-28T03:53:01.943Z,-2.19
2019-02-28T03:56:07.073Z,-2.22
2019-02-28T03:59:18.227Z,-2.19
2019-02-28T04:02:22.124Z,-2.16
2019-02-28T04:05:28.111Z,-2.22
2019-02-28T04:08:32.822Z,-2.26
2019-02-28T04:11:38.048Z,-2.24
2019-02-28T04:14:43.265Z,-2.28
2019-02-28T04:17:48.421Z,-2.26
2019-02-28T04:20:53.568Z,-2.20
2019-02-28T04:23:58.696Z,-2.36
2019-02-28T04:27:07.056Z,-2.36
2019-02-28T04:30:12.154Z,-2.38
2019-02-28T04:33:17.274Z,-2.38
2019-02-28T04:36:22.463Z,-2.50
2019-02-28T04:39:27.624Z,-2.44
2019-02-28T04:42:32.810Z,-2.40
2019-02-28T04:45:37.959Z,-2.48
2019-02-28T04:48:45.751Z,-2.58
2019-02-28T04:51:49.923Z,-2.52
2019-02-28T04:54:55.175Z,-2.48
2019-02-28T04:58:00.389Z,-2.56
2019-02-28T05:01:05.641Z,-2.56
2019-02-28T05:04:10.787Z,-2.53
2019-02-28T05:07:15.945Z,-2.56
2019-02-28T05:10:22.234Z,-2.49
2019-02-28T05:13:28.134Z,-2.52
2019-02-28T05:16:34.370Z,-2.52
2019-02-28T05:19:39.457Z,-2.67
2019-02-28T05:22:44.706Z,-2.66
2019-02-28T05:25:52.122Z,-2.65
2019-02-28T05:28:56.766Z,-2.63
2019-02-28T05:32:01.985Z,-2.56
2019-02-28T05:35:07.348Z,-2.60
2019-02-28T05:38:12.641Z,-2.65
2019-02-28T05:41:17.779Z,-2.71
2019-02-28T05:44:22.894Z,-2.77
2019-02-28T05:47:29.366Z,-2.72
2019-02-28T05:50:34.873Z,-2.69
2019-02-28T05:53:41.336Z,-2.78
2019-02-28T05:56:47.049Z,-2.78
2019-02-28T05:59:52.144Z,-2.72
2019-02-28T06:02:58.031Z,-2.71
2019-02-28T06:06:04.138Z,-2.66
2019-02-28T06:09:10.411Z,-2.77
2019-02-28T06:12:16.184Z,-2.72
2019-02-28T06:15:21.302Z,-2.79
2019-02-28T06:18:32.650Z,-2.74
2019-02-28T06:21:33.290Z,-2.70
2019-02-28T06:24:38.427Z,-2.63
2019-02-28T06:27:49.193Z,-2.57
2019-02-28T06:30:50.493Z,-2.42
2019-02-28T06:33:55.619Z,-2.38
2019-02-28T06:37:03.714Z,-2.29
2019-02-28T06:40:09.716Z,-2.16
2019-02-28T06:43:18.800Z,-2.00
2019-02-28T06:46:23.021Z,-1.90
2019-02-28T06:49:28.146Z,-1.69
2019-02-28T06:52:33.256Z,-1.54
2019-02-28T06:55:47.683Z,-1.33
2019-02-28T06:58:52.942Z,-1.26
2019-02-28T07:01:58.093Z,-1.14
2019-02-28T07:05:03.236Z,-0.90
2019-02-28T07:08:08.415Z,-0.78
2019-02-28T07:11:13.554Z,-0.67
2019-02-28T07:14:18.834Z,-0.42
2019-02-28T07:17:23.954Z,-0.31
2019-02-28T07:20:29.087Z,-0.05
2019-02-28T07:23:34.199Z,-0.14
2019-02-28T07:26:39.328Z,0.03
2019-02-28T07:29:45.767Z,0.14
2019-02-28T07:32:50.795Z,0.27
2019-02-28T07:35:55.951Z,0.22
2019-02-28T07:39:04.426Z,0.38
2019-02-28T07:42:09.915Z,0.68
2019-02-28T07:45:16.364Z,0.74
2019-02-28T07:48:26.864Z,0.85
2019-02-28T07:51:28.469Z,0.95
2019-02-28T07:54:33.681Z,1.53
2019-02-28T07:57:38.832Z,1.49
2019-02-28T08:00:44.072Z,1.76
2019-02-28T08:03:49.210Z,1.57
2019-02-28T08:06:54.937Z,1.68
2019-02-28T08:10:00.334Z,1.82
2019-02-28T08:13:05.464Z,1.87
2019-02-28T08:16:10.584Z,2.57
2019-02-28T08:19:15.750Z,2.54
2019-02-28T08:22:24.262Z,2.64
2019-02-28T08:25:27.720Z,2.63
2019-02-28T08:28:36.713Z,2.84
2019-02-28T08:31:39.651Z,3.31
2019-02-28T08:34:46.780Z,2.99
2019-02-28T08:37:55.828Z,3.16
2019-02-28T08:40:58.572Z,3.45
2019-02-28T08:44:03.748Z,3.56
2019-02-28T08:47:08.907Z,3.62
2019-02-28T08:50:20.606Z,3.96
2019-02-28T08:53:23.279Z,4.18
2019-02-28T08:56:28.455Z,4.10
2019-02-28T08:59:33.556Z,4.58
2019-02-28T09:02:39.099Z,4.54
2019-02-28T09:05:44.239Z,4.76
2019-02-28T09:08:49.455Z,5.10
2019-02-28T09:11:58.167Z,5.50
2019-02-28T09:15:01.413Z,5.54
2019-02-28T09:18:08.093Z,5.81
2019-02-28T09:21:15.427Z,6.12
2019-02-28T09:24:22.162Z,6.44
2019-02-28T09:27:27.357Z,6.88
2019-02-28T09:30:37.665Z,7.19
2019-02-28T09:33:42.830Z,7.58
2019-02-28T09:36:47.966Z,7.92
2019-02-28T09:39:54.272Z,7.96
2019-02-28T09:43:00.221Z,8.48
2019-02-28T09:46:06.542Z,8.93
2019-02-28T09:49:12.921Z,9.54
2019-02-28T09:52:18.178Z,10.13
2019-02-28T09:55:23.505Z,10.85
2019-02-28T09:58:29.354Z,11.29
2019-02-28T10:01:35.221Z,12.05
2019-02-28T10:04:40.400Z,12.75
2019-02-28T10:07:45.738Z,13.35
2019-02-28T10:10:52.418Z,13.73
2019-02-28T10:13:57.931Z,13.73
2019-02-28T10:17:03.013Z,13.90
2019-02-28T10:20:11.679Z,14.10
2019-02-28T10:23:18.436Z,14.27
2019-02-28T10:26:23.939Z,14.32
2019-02-28T10:29:29.093Z,14.52
2019-02-28T10:32:34.203Z,14.57
2019-02-28T10:35:39.368Z,14.91
2019-02-28T10:38:44.574Z,15.15
2019-02-28T10:41:49.840Z,14.51
2019-02-28T10:44:56.630Z,15.01
2019-02-28T10:48:03.883Z,15.19
2019-02-28T10:51:14.041Z,15.37
2019-02-28T10:54:15.473Z,15.23
2019-02-28T10:57:20.587Z,15.16
2019-02-28T11:00:29.352Z,15.06
2019-02-28T11:03:35.542Z,15.26
2019-02-28T11:06:41.242Z,15.37
2019-02-28T11:09:46.351Z,15.52
2019-02-28T11:12:54.248Z,15.69
2019-02-28T11:15:58.529Z,15.22
2019-02-28T11:19:05.689Z,15.53
2019-02-28T11:22:10.989Z,15.69
2019-02-28T11:25:16.771Z,15.76
2019-02-28T11:28:21.969Z,16.11
2019-02-28T11:31:27.118Z,15.96
2019-02-28T11:34:32.340Z,15.65
2019-02-28T11:37:37.791Z,15.72
2019-02-28T11:40:44.522Z,16.10
2019-02-28T11:43:49.705Z,15.80
2019-02-28T11:46:54.888Z,15.34
2019-02-28T11:50:00.459Z,15.27
2019-02-28T11:53:07.115Z,15.47
2019-02-28T11:56:13.430Z,15.68
2019-02-28T11:59:18.596Z,16.14
2019-02-28T12:02:23.821Z,15.96
2019-02-28T12:05:28.965Z,15.97
2019-02-28T12:08:34.176Z,16.03
2019-02-28T12:11:39.357Z,16.13
2019-02-28T12:14:44.493Z,16.35
2019-02-28T12:17:49.682Z,16.39
2019-02-28T12:20:54.790Z,16.24
2019-02-28T12:24:00.647Z,15.91
2019-02-28T12:27:06.906Z,16.03
2019-02-28T12:30:18.788Z,16.12
2019-02-28T12:33:24.045Z,16.35
2019-02-28T12:36:29.276Z,16.67
2019-02-28T12:39:36.320Z,16.75
2019-02-28T12:42:41.353Z,16.72
2019-02-28T12:45:47.486Z,16.32
2019-02-28T12:48:52.776Z,16.84
2019-02-28T12:51:57.920Z,16.63
2019-02-28T12:55:04.032Z,16.66
2019-02-28T12:58:11.123Z,16.68
2019-02-28T13:01:16.409Z,16.66
2019-02-28T13:04:21.576Z,16.80
2019-02-28T13:07:26.726Z,17.20
2019-02-28T13:10:31.877Z,17.51
2019-02-28T13:13:37.071Z,18.08
2019-02-28T13:16:42.215Z,17.93
2019-02-28T13:19:47.440Z,18.07
2019-02-28T13:22:55.621Z,18.22
2019-02-28T13:26:00.200Z,18.19
2019-02-28T13:29:05.770Z,17.95
2019-02-28T13:32:10.961Z,17.72
2019-02-28T13:35:18.343Z,17.74
2019-02-28T13:38:23.494Z,17.49
2019-02-28T13:41:28.607Z,17.15
2019-02-28T13:44:36.312Z,17.64
2019-02-28T13:47:42.100Z,17.31
2019-02-28T13:50:48.741Z,17.48
2019-02-28T13:53:53.949Z,17.77
2019-02-28T13:56:59.126Z,17.53
2019-02-28T14:00:08.292Z,17.67
2019-02-28T14:03:12.183Z,17.56
2019-02-28T14:06:19.809Z,17.52
2019-02-28T14:09:24.186Z,17.52
2019-02-28T14:12:29.475Z,17.55
2019-02-28T14:15:40.542Z,17.67
2019-02-28T14:18:46.186Z,17.34
2019-02-28T14:21:51.387Z,17.47
2019-02-28T14:25:05.109Z,17.56
2019-02-28T14:28:07.215Z,17.68
2019-02-28T14:31:12.454Z,17.64
2019-02-28T14:34:17.701Z,17.52
2019-02-28T14:37:22.826Z,17.46
2019-02-28T14:40:28.030Z,17.39
2019-02-28T14:43:34.237Z,17.21
2019-02-28T14:46:39.379Z,17.20
2019-02-28T14:49:44.759Z,17.19
2019-02-28T14:52:50.716Z,17.05
2019-02-28T14:55:55.846Z,16.96
2019-02-28T14:59:01.114Z,17.07
2019-02-28T15:02:06.406Z,16.94
2019-02-28T15:05:12.174Z,17.08
2019-02-28T15:08:17.452Z,17.06
2019-02-28T15:11:22.712Z,16.80
2019-02-28T15:14:27.929Z,16.98
2019-02-28T15:17:33.913Z,16.97
2019-02-28T15:20:39.122Z,16.89
2019-02-28T15:23:44.252Z,16.73
2019-02-28T15:26:49.356Z,16.61
2019-02-28T15:29:55.502Z,16.36
2019-02-28T15:33:01.543Z,16.41
2019-02-28T15:36:06.770Z,16.43
2019-02-28T15:39:11.960Z,16.28
2019-02-28T15:42:17.279Z,16.25
2019-02-28T15:45:22.407Z,15.94
2019-02-28T15:48:27.543Z,15.88
2019-02-28T15:51:32.702Z,15.67
2019-02-28T15:54:37.820Z,15.44
2019-02-28T15:57:46.109Z,15.25
2019-02-28T16:00:53.679Z,15.44
2019-02-28T16:03:58.121Z,15.26
2019-02-28T16:07:03.353Z,15.12
2019-02-28T16:10:09.952Z,14.91
2019-02-28T16:13:15.050Z,14.79
2019-02-28T16:16:21.587Z,14.61
2019-02-28T16:19:27.042Z,14.85
2019-02-28T16:22:32.266Z,14.46
2019-02-28T16:25:37.544Z,14.52
2019-02-28T16:28:43.446Z,14.52
2019-02-28T16:31:48.551Z,14.74
2019-02-28T16:34:53.741Z,14.89
2019-02-28T16:37:58.947Z,15.38
2019-02-28T16:41:04.123Z,15.41
2019-02-28T16:44:09.265Z,15.51
2019-02-28T16:47:14.396Z,15.48
2019-02-28T16:50:19.801Z,15.40
2019-02-28T16:53:25.176Z,15.33
2019-02-28T16:56:30.317Z,15.17
2019-02-28T16:59:35.509Z,15.28
2019-02-28T17:02:40.713Z,15.07
2019-02-28T17:05:45.914Z,15.17
2019-02-28T17:09:19.112Z,15.25
2019-02-28T17:12:46.545Z,15.38
2019-02-28T17:16:08.786Z,15.23
2019-02-28T17:19:14.038Z,15.52
2019-02-28T17:22:19.212Z,15.25
2019-02-28T17:25:24.354Z,15.30
2019-02-28T17:28:49.942Z,15.34
2019-02-28T17:31:56.524Z,15.51
2019-02-28T17:35:01.667Z,15.26
2019-02-28T17:38:06.952Z,15.07
2019-02-28T17:41:12.202Z,15.04
2019-02-28T17:44:41.714Z,14.81
2019-02-28T17:48:12.839Z,14.87
2019-02-28T17:51:27.480Z,14.67
2019-02-28T17:55:27.019Z,14.27
2019-02-28T17:59:28.933Z,13.82
2019-02-28T18:03:14.581Z,13.37
2019-02-28T18:06:57.696Z,13.02
2019-02-28T18:10:59.245Z,12.74
2019-02-28T18:14:20.692Z,12.65
2019-02-28T18:18:17.967Z,12.59
2019-02-28T18:22:19.577Z,12.53
2019-02-28T18:25:48.728Z,12.44
2019-02-28T18:29:11.986Z,12.37
2019-02-28T18:32:17.170Z,12.29
2019-02-28T18:35:22.413Z,12.41
2019-02-28T18:38:27.841Z,12.32
2019-02-28T18:41:33.033Z,12.41
2019-02-28T18:44:41.048Z,12.37
2019-02-28T18:47:45.292Z,12.21
2019-02-28T18:50:50.466Z,12.19
2019-02-28T18:53:55.592Z,12.16
2019-02-28T18:57:00.711Z,12.19
2019-02-28T19:00:08.559Z,12.23
2019-02-28T19:03:13.766Z,12.14
2019-02-28T19:06:19.015Z,12.03
2019-02-28T19:09:25.065Z,12.05
2019-02-28T19:12:30.294Z,12.11
2019-02-28T19:15:35.553Z,11.96
2019-02-28T19:18:40.805Z,12.03
2019-02-28T19:21:46.108Z,11.91
2019-02-28T19:24:51.245Z,11.84
2019-02-28T19:27:56.421Z,11.94
2019-02-28T19:31:01.610Z,11.87
2019-02-28T19:34:06.792Z,11.85
2019-02-28T19:37:12.011Z,11.85
2019-02-28T19:40:17.216Z,11.81
2019-02-28T19:43:22.517Z,11.85
2019-02-28T19:46:27.729Z,11.78
2019-02-28T19:49:32.920Z,11.76
2019-02-28T19:52:38.048Z,11.74
2019-02-28T19:55:43.207Z,11.64
2019-02-28T19:58:48.475Z,11.58
2019-02-28T20:01:53.635Z,11.48
2019-02-28T20:04:58.777Z,11.51
2019-02-28T20:08:04.158Z,11.43
2019-02-28T20:11:09.429Z,11.32
2019-02-28T20:14:14.843Z,11.24
2019-02-28T20:17:20.048Z,11.19
2019-02-28T20:20:25.807Z,10.97
2019-02-28T20:23:30.975Z,11.00
2019-02-28T20:26:36.156Z,10.77
2019-02-28T20:29:42.420Z,10.93
2019-02-28T20:32:47.620Z,10.86
2019-02-28T20:35:53.180Z,10.93
2019-02-28T20:38:58.375Z,10.80
2019-02-28T20:42:03.529Z,10.83
2019-02-28T20:45:09.546Z,10.91
2019-02-28T20:48:14.999Z,10.78
2019-02-28T20:51:20.353Z,10.84
2019-02-28T20:54:25.525Z,10.81
2019-02-28T20:57:30.751Z,11.01
2019-02-28T21:00:35.970Z,10.89
2019-02-28T21:03:41.214Z,10.93
2019-02-28T21:06:46.488Z,10.98
2019-02-28T21:09:51.764Z,10.87
2019-02-28T21:12:56.913Z,10.69
2019-02-28T21:16:02.156Z,10.68
2019-02-28T21:19:07.393Z,10.73
2019-02-28T21:22:12.578Z,10.85
2019-02-28T21:25:17.823Z,10.82
2019-02-28T21:28:26.112Z,10.83
2019-02-28T21:31:31.405Z,10.78
2019-02-28T21:34:36.680Z,10.74
2019-02-28T21:37:41.961Z,10.63
2019-02-28T21:40:47.195Z,10.83
2019-02-28T21:43:52.318Z,10.67
2019-02-28T21:46:57.828Z,10.59
2019-02-28T21:50:03.028Z,10.60
2019-02-28T21:53:08.230Z,10.58
2019-02-28T21:56:13.446Z,10.56
2019-02-28T21:59:18.744Z,10.48
2019-02-28T22:02:23.956Z,10.51
2019-02-28T22:05:29.119Z,10.49
2019-02-28T22:08:34.298Z,10.68
2019-02-28T22:11:39.478Z,10.74
2019-02-28T22:14:44.642Z,10.80
2019-02-28T22:17:49.951Z,10.68
2019-02-28T22:20:55.091Z,10.64
2019-02-28T22:24:00.499Z,10.72
2019-02-28T22:27:05.808Z,10.51
2019-02-28T22:30:39.254Z,10.60
2019-02-28T22:33:54.053Z,10.71
2019-02-28T22:36:59.178Z,10.62
2019-02-28T22:40:04.861Z,10.69
2019-02-28T22:43:09.973Z,10.55
2019-02-28T22:46:16.017Z,10.59
2019-02-28T22:49:21.261Z,10.52
2019-02-28T22:52:26.410Z,10.63
2019-02-28T22:55:31.616Z,10.66
2019-02-28T22:58:36.737Z,10.69
2019-02-28T23:01:42.728Z,10.78
2019-02-28T23:04:48.091Z,10.64
2019-02-28T23:07:53.197Z,10.81
2019-02-28T23:10:58.443Z,10.71
2019-02-28T23:14:03.613Z,10.63
2019-02-28T23:17:08.847Z,10.64
2019-02-28T23:20:14.036Z,10.55
2019-02-28T23:23:19.160Z,10.66
2019-02-28T23:26:26.909Z,10.63
2019-02-28T23:29:35.206Z,10.75
2019-02-28T23:32:50.675Z,10.73
2019-02-28T23:35:55.783Z,10.63
2019-02-28T23:39:02.057Z,10.69
2019-02-28T23:42:08.818Z,10.62
2019-02-28T23:45:14.013Z,10.65
2019-02-28T23:48:19.209Z,10.57
2019-02-28T23:51:24.311Z,10.63
2019-02-28T23:54:29.536Z,10.64
2019-02-28T23:57:34.690Z,10.71
